Opmeer, Netherlands
Current Conditions -  °F | °C
As of 5:34 PM on Thursday 23 Oct 2014 (Local Time) from EHKD Reporting Station
Broken Clouds Broken Clouds  
Wind Chill: 57°   Ceiling: 2400
Heat Index: 57°   Visibility: 6mi
Dew Point: 52°   Wind: 13mph
Humidity: 82%   Direction: 220°SW
Pressure: 30.06"   Gusts: NA
Location:  52.71°N, 4.94°E
Report Text: EHKD 231534Z AUTO 22011KT 9999 FEW013 SCT017 BKN024 14/11 Q1018 WHT 22012KT 9999 FEW015 BKN025 TEMPO FEW012 SCT016 BKN022
Loading
Personal Weather Stations






























Interactive Weather Map
Tropical Storm Tracking
New forecast layout! Learn more

10-Day Weather Forecast

Advertisements
Track Severe Weather on mobile